Time;durP1;ratioP1;P1;durP2;ratioP2;P2;SDS_P1;SDS_P2;PMS_P1;PMS_P2;Temp;Humidity;BMP_temperature;BMP_pressure;BME280_temperature;BME280_humidity;BME280_pressure;Samples;Min_cycle;Max_cycle;Signal;HPM_P1;HPM_P2
2022/10/27 00:02:12;;;;;;;0.10;0.10;;;;;;;;;;4967419;28;20422;-76
2022/10/27 00:04:38;;;;;;;0.10;0.10;;;;;;;;;;4951984;29;20940;-76
2022/10/27 00:07:04;;;;;;;0.10;0.10;;;;;;;;;;4966866;28;20445;-76
2022/10/27 00:09:30;;;;;;;0.10;0.10;;;;;;;;;;4951994;29;20470;-76
2022/10/27 00:11:56;;;;;;;0.10;0.10;;;;;;;;;;4951869;29;20417;-78
2022/10/27 00:14:22;;;;;;;0.10;0.10;;;;;;;;;;4950920;29;20488;-76
2022/10/27 00:16:53;;;;;;;0.10;0.10;;;;;;;;;;4951511;29;20413;-76
2022/10/27 00:19:19;;;;;;;0.10;0.10;;;;;;;;;;4950372;28;20418;-76
2022/10/27 00:21:46;;;;;;;0.10;0.10;;;;;;;;;;4949158;29;20548;-76
2022/10/27 00:24:12;;;;;;;0.10;0.10;;;;;;;;;;4952257;28;20417;-76
2022/10/27 00:26:38;;;;;;;0.00;0.00;;;;;;;;;;4950303;29;20435;-76
2022/10/27 00:29:04;;;;;;;0.10;0.10;;;;;;;;;;4950346;29;20445;-76
2022/10/27 00:31:30;;;;;;;0.10;0.10;;;;;;;;;;4951549;29;20406;-76
2022/10/27 00:33:56;;;;;;;0.10;0.10;;;;;;;;;;4966984;28;20416;-76
2022/10/27 00:36:23;;;;;;;0.10;0.10;;;;;;;;;;4966935;28;20469;-76
2022/10/27 00:38:52;;;;;;;0.00;0.00;;;;;;;;;;4949951;29;20425;-76
2022/10/27 00:41:27;;;;;;;0.10;0.10;;;;;;;;;;4946284;29;20933;-75
2022/10/27 00:43:53;;;;;;;0.10;0.10;;;;;;;;;;4950459;29;20430;-76
2022/10/27 00:46:19;;;;;;;0.10;0.10;;;;;;;;;;4951413;28;20429;-76
2022/10/27 00:48:45;;;;;;;0.10;0.10;;;;;;;;;;4950542;29;20425;-79
2022/10/27 00:51:15;;;;;;;0.10;0.10;;;;;;;;;;4966971;28;20421;-77
2022/10/27 00:53:42;;;;;;;0.10;0.10;;;;;;;;;;4970470;28;20923;-76
2022/10/27 00:56:08;;;;;;;0.00;0.00;;;;;;;;;;4955191;29;20469;-76
2022/10/27 00:58:34;;;;;;;0.10;0.10;;;;;;;;;;4955037;28;20434;-76
2022/10/27 01:01:00;;;;;;;0.10;0.10;;;;;;;;;;4953628;29;20441;-77
2022/10/27 01:03:27;;;;;;;0.10;0.10;;;;;;;;;;4955187;28;20494;-76
2022/10/27 01:05:53;;;;;;;0.10;0.10;;;;;;;;;;4954847;28;20778;-76
2022/10/27 01:08:22;;;;;;;0.03;0.03;;;;;;;;;;4955484;28;20420;-76
2022/10/27 01:10:49;;;;;;;0.10;0.10;;;;;;;;;;4953340;29;20426;-77
2022/10/27 01:13:15;;;;;;;0.10;0.10;;;;;;;;;;4955555;28;20406;-76
2022/10/27 01:16:00;;;;;;;0.10;0.10;;;;;;;;;;4954030;29;20426;-76
2022/10/27 01:18:48;;;;;;;0.00;0.00;;;;;;;;;;4954914;29;20421;-76
2022/10/27 01:21:17;;;;;;;0.10;0.10;;;;;;;;;;4970159;28;20409;-76
2022/10/27 01:23:49;;;;;;;0.10;0.10;;;;;;;;;;4955040;28;20888;-76
2022/10/27 01:26:30;;;;;;;0.20;0.20;;;;;;;;;;4969694;28;20498;-79
2022/10/27 01:29:09;;;;;;;0.10;0.10;;;;;;;;;;4953276;29;20421;-77
2022/10/27 01:31:38;;;;;;;0.10;0.10;;;;;;;;;;4953333;29;20465;-76
2022/10/27 01:34:11;;;;;;;0.00;0.00;;;;;;;;;;4953810;29;20429;-76
2022/10/27 01:36:41;;;;;;;0.10;0.10;;;;;;;;;;4953881;29;20520;-76
2022/10/27 01:39:16;;;;;;;0.10;0.10;;;;;;;;;;4954389;28;20449;-76
2022/10/27 01:41:55;;;;;;;0.10;0.10;;;;;;;;;;4954854;29;20417;-76
2022/10/27 01:44:24;;;;;;;0.10;0.10;;;;;;;;;;4969367;28;20422;-76
2022/10/27 01:46:51;;;;;;;0.00;0.00;;;;;;;;;;4968803;28;20474;-79
2022/10/27 01:49:17;;;;;;;0.10;0.10;;;;;;;;;;4969334;28;20496;-75
2022/10/27 01:51:43;;;;;;;0.00;0.00;;;;;;;;;;4955035;29;20887;-78
2022/10/27 01:54:09;;;;;;;0.03;0.03;;;;;;;;;;4969428;28;21082;-76
2022/10/27 01:56:50;;;;;;;0.00;0.00;;;;;;;;;;4953688;29;20472;-75
2022/10/27 01:59:35;;;;;;;0.10;0.10;;;;;;;;;;4969427;28;20466;-75
2022/10/27 02:02:11;;;;;;;0.10;0.10;;;;;;;;;;4954620;28;20414;-77
2022/10/27 02:04:42;;;;;;;0.10;0.10;;;;;;;;;;4955606;29;20501;-76
2022/10/27 02:07:12;;;;;;;0.08;0.08;;;;;;;;;;4970044;28;20441;-76
2022/10/27 02:09:54;;;;;;;0.10;0.10;;;;;;;;;;4954447;29;20945;-76
2022/10/27 02:12:23;;;;;;;0.00;0.00;;;;;;;;;;4970195;28;20406;-75
2022/10/27 02:14:51;;;;;;;0.00;0.00;;;;;;;;;;4955486;29;20429;-75
2022/10/27 02:17:18;;;;;;;0.00;0.00;;;;;;;;;;4955018;28;20440;-76
2022/10/27 02:19:46;;;;;;;0.00;0.00;;;;;;;;;;4970648;28;20424;-76
2022/10/27 02:22:13;;;;;;;0.00;0.00;;;;;;;;;;4969616;28;20418;-76
2022/10/27 02:24:39;;;;;;;0.00;0.00;;;;;;;;;;4954479;29;20414;-76
2022/10/27 02:27:11;;;;;;;0.10;0.10;;;;;;;;;;4952772;29;20913;-76
2022/10/27 02:29:41;;;;;;;0.10;0.10;;;;;;;;;;4954273;28;20484;-76
2022/10/27 02:32:09;;;;;;;0.10;0.10;;;;;;;;;;4953129;28;20420;-79
2022/10/27 02:34:36;;;;;;;0.10;0.10;;;;;;;;;;4969060;28;20453;-76
2022/10/27 02:37:03;;;;;;;0.10;0.10;;;;;;;;;;4952386;28;20468;-78
2022/10/27 02:39:29;;;;;;;0.10;0.10;;;;;;;;;;4953753;29;20441;-76
2022/10/27 02:41:55;;;;;;;0.10;0.10;;;;;;;;;;4952196;29;20425;-80
2022/10/27 02:44:21;;;;;;;0.00;0.00;;;;;;;;;;4968614;28;20923;-76
2022/10/27 02:46:47;;;;;;;0.10;0.10;;;;;;;;;;4954030;29;20913;-76
2022/10/27 02:49:13;;;;;;;0.10;0.10;;;;;;;;;;4952928;29;20420;-76
2022/10/27 02:51:39;;;;;;;0.20;0.20;;;;;;;;;;4952620;29;20406;-77
2022/10/27 02:54:05;;;;;;;0.05;0.05;;;;;;;;;;4952321;29;20414;-76
2022/10/27 02:56:31;;;;;;;0.10;0.10;;;;;;;;;;4953947;29;20509;-76
2022/10/27 02:58:58;;;;;;;0.30;0.30;;;;;;;;;;4951743;28;20429;-79
2022/10/27 03:01:24;;;;;;;0.10;0.10;;;;;;;;;;4953095;28;20893;-76
2022/10/27 03:03:50;;;;;;;0.40;0.30;;;;;;;;;;4952837;28;20398;-75
2022/10/27 03:06:16;;;;;;;0.00;0.00;;;;;;;;;;4954277;28;21083;-76
2022/10/27 03:08:42;;;;;;;0.10;0.10;;;;;;;;;;4952197;29;20901;-76
2022/10/27 03:11:08;;;;;;;0.00;0.00;;;;;;;;;;4952050;29;20897;-76
2022/10/27 03:13:34;;;;;;;0.10;0.10;;;;;;;;;;4967535;28;20756;-76
2022/10/27 03:16:00;;;;;;;0.40;0.40;;;;;;;;;;4952707;28;20905;-76
2022/10/27 03:18:26;;;;;;;0.05;0.05;;;;;;;;;;4954189;29;20409;-75
2022/10/27 03:20:52;;;;;;;0.10;0.10;;;;;;;;;;4954286;29;20816;-76
2022/10/27 03:23:18;;;;;;;0.10;0.10;;;;;;;;;;4952754;28;21157;-76
2022/10/27 03:25:44;;;;;;;0.10;0.10;;;;;;;;;;4951866;28;20472;-77
2022/10/27 03:28:13;;;;;;;0.00;0.00;;;;;;;;;;4966722;28;20418;-76
2022/10/27 03:30:39;;;;;;;0.10;0.10;;;;;;;;;;4952163;29;20757;-76
2022/10/27 03:33:05;;;;;;;0.20;0.20;;;;;;;;;;4952409;29;20437;-79
2022/10/27 03:35:31;;;;;;;0.00;0.00;;;;;;;;;;4952271;28;20433;-76
2022/10/27 03:37:58;;;;;;;0.00;0.00;;;;;;;;;;4953036;28;20516;-76
2022/10/27 03:40:24;;;;;;;0.00;0.00;;;;;;;;;;4952031;28;20410;-76
2022/10/27 03:42:50;;;;;;;0.10;0.10;;;;;;;;;;4967984;28;20421;-76
2022/10/27 03:45:16;;;;;;;0.00;0.00;;;;;;;;;;4951233;29;20793;-76
2022/10/27 03:47:42;;;;;;;0.00;0.00;;;;;;;;;;4967563;28;20885;-76
2022/10/27 03:50:09;;;;;;;0.10;0.10;;;;;;;;;;4951681;29;20496;-76
2022/10/27 03:52:35;;;;;;;0.10;0.10;;;;;;;;;;4951817;29;20505;-75
2022/10/27 03:55:01;;;;;;;0.10;0.10;;;;;;;;;;4967633;28;20418;-80
2022/10/27 03:57:27;;;;;;;0.10;0.10;;;;;;;;;;4966919;28;20477;-77
2022/10/27 03:59:53;;;;;;;0.10;0.10;;;;;;;;;;4967642;28;20465;-75
2022/10/27 04:02:19;;;;;;;0.03;0.03;;;;;;;;;;4951355;28;20493;-75
2022/10/27 04:04:45;;;;;;;0.00;0.00;;;;;;;;;;4967297;28;20417;-76
2022/10/27 04:07:11;;;;;;;0.00;0.00;;;;;;;;;;4950719;28;20485;-77
2022/10/27 04:09:37;;;;;;;0.10;0.10;;;;;;;;;;4951391;28;20417;-79
2022/10/27 04:12:04;;;;;;;0.00;0.00;;;;;;;;;;4950843;29;20472;-76
2022/10/27 04:14:30;;;;;;;0.10;0.10;;;;;;;;;;4952046;29;20909;-78
2022/10/27 04:16:56;;;;;;;0.40;0.40;;;;;;;;;;4952577;29;20873;-77
2022/10/27 04:19:22;;;;;;;0.03;0.03;;;;;;;;;;4966613;28;20473;-76
2022/10/27 04:21:48;;;;;;;0.20;0.20;;;;;;;;;;4950934;29;20417;-77
2022/10/27 04:24:14;;;;;;;0.20;0.20;;;;;;;;;;4966997;28;20502;-79
2022/10/27 04:26:40;;;;;;;0.10;0.10;;;;;;;;;;4951421;29;20430;-76
2022/10/27 04:29:06;;;;;;;0.00;0.00;;;;;;;;;;4949978;29;20417;-79
2022/10/27 04:31:32;;;;;;;0.10;0.10;;;;;;;;;;4952097;28;20417;-74
2022/10/27 04:33:58;;;;;;;0.30;0.30;;;;;;;;;;4952095;29;20907;-75
2022/10/27 04:36:25;;;;;;;0.10;0.10;;;;;;;;;;4951409;28;20477;-76
2022/10/27 04:38:51;;;;;;;0.10;0.10;;;;;;;;;;4968285;28;20425;-74
2022/10/27 04:41:17;;;;;;;0.10;0.10;;;;;;;;;;4967423;28;20418;-76
2022/10/27 04:43:43;;;;;;;0.20;0.20;;;;;;;;;;4951343;29;20410;-76
2022/10/27 04:46:09;;;;;;;0.10;0.10;;;;;;;;;;4950146;29;20441;-77
2022/10/27 04:48:35;;;;;;;0.10;0.10;;;;;;;;;;4951821;28;20417;-76
2022/10/27 04:51:01;;;;;;;0.10;0.10;;;;;;;;;;4966638;28;20453;-77
2022/10/27 04:53:27;;;;;;;0.00;0.00;;;;;;;;;;4950592;29;20915;-75
2022/10/27 04:55:53;;;;;;;0.10;0.10;;;;;;;;;;4951865;28;20418;-75
2022/10/27 04:58:20;;;;;;;0.10;0.10;;;;;;;;;;4951321;29;20402;-73
2022/10/27 05:00:47;;;;;;;0.10;0.10;;;;;;;;;;4951155;29;20422;-74
2022/10/27 05:03:14;;;;;;;0.10;0.10;;;;;;;;;;4952179;29;20406;-76
2022/10/27 05:05:40;;;;;;;0.10;0.10;;;;;;;;;;4952727;28;20440;-77
2022/10/27 05:08:06;;;;;;;0.10;0.10;;;;;;;;;;4952277;29;20409;-77
2022/10/27 05:10:34;;;;;;;0.10;0.10;;;;;;;;;;4951265;28;20424;-77
2022/10/27 05:13:00;;;;;;;0.30;0.30;;;;;;;;;;4952744;28;20496;-76
2022/10/27 05:15:26;;;;;;;0.10;0.10;;;;;;;;;;4965976;28;20424;-76
2022/10/27 05:17:53;;;;;;;0.30;0.30;;;;;;;;;;4951597;28;20414;-76
2022/10/27 05:20:21;;;;;;;0.20;0.20;;;;;;;;;;4967063;28;20473;-76
2022/10/27 05:22:47;;;;;;;0.10;0.10;;;;;;;;;;4951331;29;20505;-77
2022/10/27 05:25:14;;;;;;;0.20;0.20;;;;;;;;;;4967563;28;20437;-77
2022/10/27 05:27:40;;;;;;;0.20;0.20;;;;;;;;;;4967955;28;20413;-79
2022/10/27 05:30:07;;;;;;;0.10;0.10;;;;;;;;;;4952910;28;20410;-77
2022/10/27 05:32:33;;;;;;;0.10;0.10;;;;;;;;;;4952315;28;20464;-76
2022/10/27 05:34:59;;;;;;;0.25;0.25;;;;;;;;;;4951635;29;20422;-76
2022/10/27 05:37:25;;;;;;;0.00;0.00;;;;;;;;;;4968099;28;20449;-76
2022/10/27 05:39:51;;;;;;;0.10;0.10;;;;;;;;;;4955029;29;20433;-76
2022/10/27 05:42:17;;;;;;;0.15;0.15;;;;;;;;;;4955836;28;20406;-76
2022/10/27 05:44:43;;;;;;;0.07;0.07;;;;;;;;;;4954485;29;20583;-77
2022/10/27 05:47:10;;;;;;;0.20;0.20;;;;;;;;;;4954174;29;20434;-75
2022/10/27 05:49:36;;;;;;;0.50;0.50;;;;;;;;;;4969956;28;20410;-77
2022/10/27 05:52:02;;;;;;;0.10;0.10;;;;;;;;;;4970716;28;20433;-76
2022/10/27 05:54:28;;;;;;;0.10;0.10;;;;;;;;;;4955600;28;20471;-76
2022/10/27 05:56:54;;;;;;;0.10;0.10;;;;;;;;;;4970590;28;20502;-78
2022/10/27 05:59:20;;;;;;;0.20;0.20;;;;;;;;;;4954912;29;20405;-77
2022/10/27 06:01:46;;;;;;;0.10;0.10;;;;;;;;;;4970371;28;20500;-76
2022/10/27 06:04:12;;;;;;;0.10;0.10;;;;;;;;;;4954174;29;20869;-77
2022/10/27 06:06:38;;;;;;;0.10;0.10;;;;;;;;;;4954738;29;20592;-77
2022/10/27 06:09:04;;;;;;;0.10;0.10;;;;;;;;;;4954079;29;20418;-77
2022/10/27 06:11:30;;;;;;;0.10;0.10;;;;;;;;;;4952087;29;20889;-77
2022/10/27 06:13:56;;;;;;;0.10;0.10;;;;;;;;;;4952882;29;20489;-77
2022/10/27 06:16:24;;;;;;;0.10;0.10;;;;;;;;;;4952817;29;20470;-76
2022/10/27 06:18:52;;;;;;;0.40;0.40;;;;;;;;;;4953618;29;20773;-77
2022/10/27 06:21:18;;;;;;;0.00;0.00;;;;;;;;;;4969405;28;20417;-77
2022/10/27 06:23:47;;;;;;;0.10;0.10;;;;;;;;;;4953994;29;20471;-77
2022/10/27 06:26:13;;;;;;;0.30;0.30;;;;;;;;;;4953770;28;20498;-77
2022/10/27 06:28:39;;;;;;;0.10;0.10;;;;;;;;;;4952557;29;20414;-79
2022/10/27 06:31:05;;;;;;;0.10;0.10;;;;;;;;;;4954021;28;20410;-77
2022/10/27 06:33:31;;;;;;;0.20;0.20;;;;;;;;;;4969346;28;20426;-77
2022/10/27 06:35:57;;;;;;;0.40;0.40;;;;;;;;;;4953700;29;20960;-77
2022/10/27 06:38:23;;;;;;;0.20;0.20;;;;;;;;;;4952904;28;20942;-76
2022/10/27 06:40:49;;;;;;;0.30;0.30;;;;;;;;;;4968432;28;20422;-76
2022/10/27 06:43:15;;;;;;;6.10;1.60;;;;;;;;;;4951868;29;20461;-78
2022/10/27 06:45:45;;;;;;;0.10;0.10;;;;;;;;;;4953564;28;20437;-77
2022/10/27 06:48:11;;;;;;;0.40;0.40;;;;;;;;;;4952810;28;20402;-77
2022/10/27 06:50:37;;;;;;;1.70;0.80;;;;;;;;;;4952414;28;20410;-77
2022/10/27 06:53:03;;;;;;;0.10;0.10;;;;;;;;;;4953537;29;20414;-77
2022/10/27 06:55:30;;;;;;;0.30;0.30;;;;;;;;;;4952360;28;20941;-76
2022/10/27 06:57:56;;;;;;;0.10;0.10;;;;;;;;;;4968627;28;20417;-76
2022/10/27 07:00:22;;;;;;;0.10;0.10;;;;;;;;;;4953868;28;20424;-78
2022/10/27 07:02:48;;;;;;;0.75;0.60;;;;;;;;;;4952650;28;20810;-76
2022/10/27 07:05:14;;;;;;;0.10;0.10;;;;;;;;;;4952540;29;20409;-77
2022/10/27 07:07:45;;;;;;;0.00;0.00;;;;;;;;;;4953348;29;20506;-77
2022/10/27 07:10:11;;;;;;;0.00;0.00;;;;;;;;;;4969191;28;20995;-77
2022/10/27 07:12:37;;;;;;;0.10;0.10;;;;;;;;;;4968743;28;20450;-79
2022/10/27 07:15:04;;;;;;;0.10;0.10;;;;;;;;;;4954096;28;20477;-75
2022/10/27 07:17:30;;;;;;;0.10;0.10;;;;;;;;;;4952378;29;20418;-77
2022/10/27 07:19:56;;;;;;;0.10;0.10;;;;;;;;;;4953563;28;20454;-81
2022/10/27 07:22:22;;;;;;;0.10;0.10;;;;;;;;;;4969057;28;20426;-77
2022/10/27 07:24:48;;;;;;;0.10;0.10;;;;;;;;;;4953821;29;20451;-77
2022/10/27 07:27:14;;;;;;;0.32;0.25;;;;;;;;;;4953292;29;20433;-77
2022/10/27 07:29:40;;;;;;;0.20;0.20;;;;;;;;;;4968286;28;20418;-77
2022/10/27 07:32:06;;;;;;;0.90;0.60;;;;;;;;;;4969152;28;20410;-77
2022/10/27 07:34:32;;;;;;;0.10;0.10;;;;;;;;;;4953097;29;20410;-77
2022/10/27 07:36:58;;;;;;;0.30;0.30;;;;;;;;;;4952738;29;20564;-76
2022/10/27 07:39:24;;;;;;;0.40;0.40;;;;;;;;;;4953507;28;20445;-77
2022/10/27 07:41:50;;;;;;;0.40;0.28;;;;;;;;;;4952978;29;20855;-77
2022/10/27 07:44:16;;;;;;;0.10;0.10;;;;;;;;;;4968476;28;20505;-77
2022/10/27 07:46:42;;;;;;;0.38;0.38;;;;;;;;;;4951010;29;20426;-80
2022/10/27 07:49:08;;;;;;;0.50;0.50;;;;;;;;;;4951496;29;20432;-77
2022/10/27 07:51:34;;;;;;;0.30;0.30;;;;;;;;;;4952222;29;20441;-75
2022/10/27 07:54:00;;;;;;;0.20;0.20;;;;;;;;;;4953794;29;20432;-75
2022/10/27 07:56:26;;;;;;;0.50;0.50;;;;;;;;;;4968522;28;20764;-74
2022/10/27 07:58:52;;;;;;;0.10;0.10;;;;;;;;;;4952014;29;20414;-74
2022/10/27 08:01:18;;;;;;;0.25;0.25;;;;;;;;;;4952181;28;20410;-75
2022/10/27 08:03:44;;;;;;;0.10;0.10;;;;;;;;;;4951874;29;20410;-77
2022/10/27 08:06:10;;;;;;;10.10;0.60;;;;;;;;;;4951548;29;20433;-75
2022/10/27 08:08:36;;;;;;;0.10;0.10;;;;;;;;;;4967796;28;20453;-75
2022/10/27 08:11:02;;;;;;;0.70;0.40;;;;;;;;;;4952679;29;20414;-73
2022/10/27 08:13:28;;;;;;;0.10;0.10;;;;;;;;;;4966786;28;20481;-72
2022/10/27 08:15:58;;;;;;;0.10;0.10;;;;;;;;;;4967973;28;20414;-72
2022/10/27 08:18:24;;;;;;;2.60;0.40;;;;;;;;;;4952517;29;20409;-73
2022/10/27 08:20:50;;;;;;;0.20;0.20;;;;;;;;;;4952731;29;20417;-74
2022/10/27 08:23:19;;;;;;;0.30;0.30;;;;;;;;;;4951483;29;20424;-77
2022/10/27 08:25:45;;;;;;;0.10;0.10;;;;;;;;;;4951508;28;20442;-76
2022/10/27 08:28:11;;;;;;;0.10;0.10;;;;;;;;;;4966500;28;20413;-77
2022/10/27 08:30:37;;;;;;;0.10;0.10;;;;;;;;;;4950639;29;20453;-76
2022/10/27 08:33:04;;;;;;;0.10;0.10;;;;;;;;;;4951007;29;20487;-76
2022/10/27 08:35:31;;;;;;;1.80;1.10;;;;;;;;;;4966739;28;20795;-75
2022/10/27 08:37:58;;;;;;;0.10;0.10;;;;;;;;;;4952049;28;20695;-76
2022/10/27 08:40:25;;;;;;;0.10;0.10;;;;;;;;;;4966862;28;20813;-75
2022/10/27 08:42:54;;;;;;;0.47;0.47;;;;;;;;;;4950345;29;20422;-76
2022/10/27 08:45:30;;;;;;;0.10;0.10;;;;;;;;;;4951355;29;22325;-79
2022/10/27 08:47:58;;;;;;;0.40;0.40;;;;;;;;;;4967009;28;20445;-76
2022/10/27 08:50:26;;;;;;;0.13;0.13;;;;;;;;;;4965688;28;20450;-80
2022/10/27 08:52:54;;;;;;;0.25;0.25;;;;;;;;;;4966976;28;20422;-75
2022/10/27 08:55:21;;;;;;;0.80;0.60;;;;;;;;;;4952328;28;20468;-76
2022/10/27 08:57:58;;;;;;;0.40;0.40;;;;;;;;;;4950499;29;20785;-76
2022/10/27 09:00:25;;;;;;;0.25;0.25;;;;;;;;;;4967759;28;20557;-75
2022/10/27 09:02:58;;;;;;;0.40;0.40;;;;;;;;;;4951580;28;20472;-77
2022/10/27 09:05:42;;;;;;;0.10;0.10;;;;;;;;;;4951217;29;20429;-84
2022/10/27 09:08:32;;;;;;;0.10;0.10;;;;;;;;;;4951687;29;20460;-83
2022/10/27 09:11:07;;;;;;;0.10;0.10;;;;;;;;;;4953007;28;20466;-83
2022/10/27 09:13:36;;;;;;;0.38;0.38;;;;;;;;;;4952010;28;20429;-77
2022/10/27 09:16:04;;;;;;;0.70;0.20;;;;;;;;;;4955668;29;20426;-77
2022/10/27 09:18:36;;;;;;;0.30;0.30;;;;;;;;;;4955577;28;20418;-83
2022/10/27 09:21:04;;;;;;;0.30;0.30;;;;;;;;;;4971294;28;20417;-84
2022/10/27 09:23:35;;;;;;;0.10;0.10;;;;;;;;;;4953235;28;20418;-82
2022/10/27 09:26:01;;;;;;;0.10;0.10;;;;;;;;;;4954033;29;20437;-78
2022/10/27 09:28:36;;;;;;;0.20;0.20;;;;;;;;;;4955992;29;20412;-77
2022/10/27 09:31:04;;;;;;;0.20;0.20;;;;;;;;;;4954810;29;20414;-79
2022/10/27 09:33:32;;;;;;;0.10;0.10;;;;;;;;;;4955059;28;20429;-76
2022/10/27 09:35:59;;;;;;;0.10;0.10;;;;;;;;;;4970585;28;20453;-78
2022/10/27 09:38:27;;;;;;;0.10;0.10;;;;;;;;;;4955803;29;20417;-79
2022/10/27 09:40:53;;;;;;;0.20;0.20;;;;;;;;;;4971335;28;20425;-74
2022/10/27 09:43:20;;;;;;;0.10;0.10;;;;;;;;;;4970944;28;20421;-76
2022/10/27 09:45:49;;;;;;;0.30;0.30;;;;;;;;;;4954240;28;20442;-76
2022/10/27 09:48:20;;;;;;;0.20;0.20;;;;;;;;;;4970669;28;20769;-76
2022/10/27 09:50:52;;;;;;;0.10;0.10;;;;;;;;;;4970386;28;20414;-81
2022/10/27 09:53:38;;;;;;;0.10;0.10;;;;;;;;;;4971426;28;20430;-84
2022/10/27 09:56:04;;;;;;;0.10;0.10;;;;;;;;;;4970754;28;20429;-82
2022/10/27 09:58:31;;;;;;;0.10;0.10;;;;;;;;;;4970418;28;20757;-82
2022/10/27 10:00:58;;;;;;;0.10;0.10;;;;;;;;;;4954959;28;20504;-80
2022/10/27 10:03:24;;;;;;;0.70;0.50;;;;;;;;;;4970918;28;20517;-83
2022/10/27 10:06:13;;;;;;;0.10;0.10;;;;;;;;;;4970833;28;20444;-88
2022/10/27 10:08:39;;;;;;;0.10;0.10;;;;;;;;;;4969429;28;20414;-84
2022/10/27 10:11:16;;;;;;;0.10;0.10;;;;;;;;;;4954384;28;20420;-82
2022/10/27 10:13:54;;;;;;;0.30;0.30;;;;;;;;;;4952979;28;20422;-85
2022/10/27 10:16:21;;;;;;;0.10;0.10;;;;;;;;;;4968849;28;20814;-81
2022/10/27 10:18:58;;;;;;;0.20;0.20;;;;;;;;;;4953626;28;20500;-79
2022/10/27 10:21:24;;;;;;;0.10;0.10;;;;;;;;;;4970237;28;20414;-83
2022/10/27 10:23:54;;;;;;;0.10;0.10;;;;;;;;;;4952835;28;20893;-82
2022/10/27 10:26:25;;;;;;;0.10;0.10;;;;;;;;;;4937992;29;20520;-83
2022/10/27 10:28:53;;;;;;;0.55;0.55;;;;;;;;;;4969313;28;20909;-81
2022/10/27 10:31:29;;;;;;;1.38;1.27;;;;;;;;;;4952950;29;20464;-81
2022/10/27 10:34:02;;;;;;;0.10;0.10;;;;;;;;;;4969970;28;20461;-82
2022/10/27 10:36:33;;;;;;;0.20;0.15;;;;;;;;;;4969731;28;20418;-79
2022/10/27 10:39:00;;;;;;;0.10;0.10;;;;;;;;;;4953052;28;20427;-79
2022/10/27 10:41:29;;;;;;;0.10;0.10;;;;;;;;;;4969178;28;20508;-81
2022/10/27 10:44:11;;;;;;;0.25;0.25;;;;;;;;;;4953951;28;20414;-81
2022/10/27 10:46:53;;;;;;;0.10;0.10;;;;;;;;;;4953405;29;20445;-79
2022/10/27 10:49:21;;;;;;;0.10;0.10;;;;;;;;;;4969214;28;20488;-80
2022/10/27 10:51:52;;;;;;;0.10;0.10;;;;;;;;;;4953548;29;20424;-80
2022/10/27 10:54:22;;;;;;;0.10;0.10;;;;;;;;;;4953689;29;20418;-83
2022/10/27 10:56:52;;;;;;;0.10;0.10;;;;;;;;;;4969502;28;20502;-77
2022/10/27 10:59:20;;;;;;;0.10;0.10;;;;;;;;;;4953556;29;20412;-79
2022/10/27 11:02:01;;;;;;;0.10;0.10;;;;;;;;;;4969686;28;20440;-82
2022/10/27 11:04:29;;;;;;;0.10;0.10;;;;;;;;;;4953003;29;20434;-83
2022/10/27 11:07:14;;;;;;;0.10;0.10;;;;;;;;;;4968605;28;20425;-79
2022/10/27 11:09:49;;;;;;;0.10;0.10;;;;;;;;;;4952694;29;20566;-80
2022/10/27 11:12:27;;;;;;;0.10;0.10;;;;;;;;;;4952378;29;20924;-85
2022/10/27 11:14:54;;;;;;;0.40;0.40;;;;;;;;;;4968791;28;20434;-82
2022/10/27 11:17:22;;;;;;;0.10;0.10;;;;;;;;;;4953759;28;20477;-80
2022/10/27 11:19:49;;;;;;;0.10;0.10;;;;;;;;;;4969088;28;20413;-83
2022/10/27 11:22:16;;;;;;;0.10;0.10;;;;;;;;;;4969040;28;20513;-81
2022/10/27 11:24:47;;;;;;;0.10;0.10;;;;;;;;;;4969196;28;20417;-83
2022/10/27 11:27:23;;;;;;;1.33;0.52;;;;;;;;;;4968027;28;20430;-84
2022/10/27 11:29:49;;;;;;;0.20;0.20;;;;;;;;;;4967640;28;20553;-81
2022/10/27 11:32:25;;;;;;;0.10;0.10;;;;;;;;;;4952243;29;20505;-81
2022/10/27 11:34:54;;;;;;;0.10;0.10;;;;;;;;;;4953118;28;20417;-82
2022/10/27 11:37:28;;;;;;;0.10;0.10;;;;;;;;;;4952527;29;20414;-85
2022/10/27 11:40:00;;;;;;;0.10;0.10;;;;;;;;;;4968433;28;20425;-79
2022/10/27 11:42:50;;;;;;;2.20;0.30;;;;;;;;;;4968837;28;20566;-85
2022/10/27 11:45:16;;;;;;;0.10;0.10;;;;;;;;;;4952476;29;20426;-84
2022/10/27 11:47:54;;;;;;;0.20;0.20;;;;;;;;;;4951286;29;20539;-84
2022/10/27 11:50:23;;;;;;;0.05;0.05;;;;;;;;;;4952052;29;20417;-86
2022/10/27 11:52:51;;;;;;;0.10;0.10;;;;;;;;;;4952195;29;20924;-82
2022/10/27 11:55:19;;;;;;;0.13;0.13;;;;;;;;;;4969587;28;20417;-77
2022/10/27 11:57:51;;;;;;;0.10;0.10;;;;;;;;;;4953299;28;20453;-75
2022/10/27 12:00:25;;;;;;;0.10;0.10;;;;;;;;;;4952025;29;20746;-77
2022/10/27 12:03:10;;;;;;;0.10;0.10;;;;;;;;;;4966951;28;20714;-77
2022/10/27 12:05:42;;;;;;;0.10;0.10;;;;;;;;;;4951089;29;20433;-79
2022/10/27 12:08:15;;;;;;;0.10;0.10;;;;;;;;;;4967697;28;20414;-74
2022/10/27 12:11:00;;;;;;;0.10;0.10;;;;;;;;;;4951994;28;20410;-75
2022/10/27 12:13:44;;;;;;;0.20;0.20;;;;;;;;;;4952776;29;20426;-75
2022/10/27 12:16:15;;;;;;;0.10;0.10;;;;;;;;;;4952305;29;20414;-74
2022/10/27 12:18:44;;;;;;;1.00;0.80;;;;;;;;;;4952253;28;20493;-76
2022/10/27 12:21:14;;;;;;;0.20;0.20;;;;;;;;;;4966737;28;20422;-77
2022/10/27 12:23:47;;;;;;;0.10;0.10;;;;;;;;;;4952002;28;20406;-78
2022/10/27 12:26:19;;;;;;;0.20;0.20;;;;;;;;;;4966596;28;20434;-76
2022/10/27 12:28:46;;;;;;;0.10;0.10;;;;;;;;;;4967210;28;20972;-76
2022/10/27 12:31:16;;;;;;;0.10;0.10;;;;;;;;;;4966786;28;20456;-74
2022/10/27 12:33:42;;;;;;;0.10;0.10;;;;;;;;;;4951207;28;20517;-75
2022/10/27 12:36:11;;;;;;;0.10;0.10;;;;;;;;;;4951733;29;20416;-76
2022/10/27 12:38:40;;;;;;;0.10;0.10;;;;;;;;;;4951170;29;20425;-76
2022/10/27 12:41:09;;;;;;;0.10;0.10;;;;;;;;;;4952481;29;20517;-76
2022/10/27 12:43:44;;;;;;;0.10;0.10;;;;;;;;;;4967525;28;20446;-76
2022/10/27 12:46:22;;;;;;;0.10;0.10;;;;;;;;;;4951014;29;20521;-77
2022/10/27 12:48:54;;;;;;;0.10;0.10;;;;;;;;;;4953621;29;20461;-76
2022/10/27 12:51:30;;;;;;;0.10;0.10;;;;;;;;;;4955485;29;20920;-77
2022/10/27 12:54:15;;;;;;;0.20;0.20;;;;;;;;;;4971608;28;20980;-78
2022/10/27 12:56:48;;;;;;;0.20;0.20;;;;;;;;;;4954661;29;20612;-76
2022/10/27 12:59:27;;;;;;;0.20;0.15;;;;;;;;;;4971991;28;20406;-77
2022/10/27 13:01:56;;;;;;;0.10;0.10;;;;;;;;;;4954957;29;20426;-76
2022/10/27 13:04:28;;;;;;;0.20;0.20;;;;;;;;;;4956129;29;20924;-76
2022/10/27 13:07:13;;;;;;;0.10;0.10;;;;;;;;;;4954530;28;20469;-76
2022/10/27 13:09:45;;;;;;;0.10;0.10;;;;;;;;;;4954306;29;20485;-76
2022/10/27 13:12:18;;;;;;;0.10;0.10;;;;;;;;;;4954004;29;20461;-76
2022/10/27 13:14:44;;;;;;;0.10;0.10;;;;;;;;;;4954907;29;20417;-80
2022/10/27 13:17:13;;;;;;;0.10;0.10;;;;;;;;;;4970441;28;20517;-76
2022/10/27 13:20:00;;;;;;;0.10;0.10;;;;;;;;;;4954419;29;21030;-76
2022/10/27 13:22:30;;;;;;;0.10;0.10;;;;;;;;;;4953497;29;20418;-76
2022/10/27 13:25:09;;;;;;;0.17;0.17;;;;;;;;;;4971404;28;20413;-76
2022/10/27 13:27:38;;;;;;;0.10;0.10;;;;;;;;;;4954601;29;20445;-75
2022/10/27 13:30:07;;;;;;;0.10;0.10;;;;;;;;;;4954983;29;20426;-76
2022/10/27 13:32:48;;;;;;;0.10;0.10;;;;;;;;;;4970712;28;20816;-79
2022/10/27 13:35:14;;;;;;;0.10;0.10;;;;;;;;;;4970227;28;20426;-79
2022/10/27 13:37:40;;;;;;;0.10;0.10;;;;;;;;;;4969285;28;20449;-77
2022/10/27 13:40:19;;;;;;;0.10;0.10;;;;;;;;;;4953161;29;20461;-78
2022/10/27 13:42:45;;;;;;;0.20;0.20;;;;;;;;;;4955105;29;20426;-85
2022/10/27 13:45:32;;;;;;;0.10;0.10;;;;;;;;;;4955020;28;20418;-78
2022/10/27 13:48:07;;;;;;;0.10;0.10;;;;;;;;;;4956250;28;20601;-80
2022/10/27 13:50:36;;;;;;;0.50;0.30;;;;;;;;;;4955344;29;20422;-79
2022/10/27 13:53:14;;;;;;;0.10;0.10;;;;;;;;;;4954005;29;20422;-79
2022/10/27 13:55:40;;;;;;;0.10;0.10;;;;;;;;;;4954863;29;20429;-78
2022/10/27 13:58:09;;;;;;;0.10;0.10;;;;;;;;;;4953849;28;20444;-80
2022/10/27 14:00:53;;;;;;;0.10;0.10;;;;;;;;;;4954976;29;20426;-79
2022/10/27 14:03:22;;;;;;;0.10;0.10;;;;;;;;;;4954858;29;20421;-79
2022/10/27 14:05:49;;;;;;;0.10;0.10;;;;;;;;;;4954650;29;20433;-81
2022/10/27 14:08:19;;;;;;;0.10;0.10;;;;;;;;;;4954426;29;20485;-79
2022/10/27 14:10:46;;;;;;;0.17;0.17;;;;;;;;;;4954859;29;20410;-80
2022/10/27 14:13:18;;;;;;;0.10;0.10;;;;;;;;;;4954302;29;20501;-80
2022/10/27 14:15:44;;;;;;;0.10;0.10;;;;;;;;;;4970939;28;20417;-80
2022/10/27 14:18:20;;;;;;;6.60;0.80;;;;;;;;;;4954838;29;20409;-79
2022/10/27 14:20:47;;;;;;;0.20;0.20;;;;;;;;;;4953887;28;20509;-79
2022/10/27 14:23:14;;;;;;;0.10;0.10;;;;;;;;;;4952865;28;20515;-79
2022/10/27 14:25:40;;;;;;;0.60;0.50;;;;;;;;;;4952835;28;20433;-79
2022/10/27 14:28:16;;;;;;;0.32;0.32;;;;;;;;;;4968605;28;20798;-78
2022/10/27 14:30:43;;;;;;;0.10;0.10;;;;;;;;;;4969850;28;20433;-75
2022/10/27 14:33:16;;;;;;;0.10;0.10;;;;;;;;;;4953173;28;20422;-76
2022/10/27 14:35:42;;;;;;;0.10;0.10;;;;;;;;;;4969002;28;20425;-77
2022/10/27 14:38:18;;;;;;;20.60;0.60;;;;;;;;;;4954267;28;20497;-77
2022/10/27 14:40:45;;;;;;;1.60;0.80;;;;;;;;;;4954037;28;20410;-75
2022/10/27 14:43:22;;;;;;;0.10;0.10;;;;;;;;;;4952527;28;20912;-76
2022/10/27 14:45:56;;;;;;;0.10;0.10;;;;;;;;;;4968965;28;20461;-75
2022/10/27 14:48:30;;;;;;;0.07;0.07;;;;;;;;;;4969134;28;20421;-77
2022/10/27 14:50:57;;;;;;;0.10;0.10;;;;;;;;;;4953558;28;20492;-78
2022/10/27 14:53:26;;;;;;;0.10;0.10;;;;;;;;;;4953274;29;20430;-79
2022/10/27 14:56:03;;;;;;;0.10;0.10;;;;;;;;;;4969549;28;20760;-76